createdAt,value
2019-04-23T00:00:07.576Z,12.59
2019-04-23T00:01:16.353Z,12.65
2019-04-23T00:02:04.059Z,12.62
2019-04-23T00:03:18.788Z,12.67
2019-04-23T00:04:05.739Z,12.64
2019-04-23T00:05:02.082Z,12.59
2019-04-23T00:06:15.079Z,12.59
2019-04-23T00:07:15.801Z,12.52
2019-04-23T00:08:11.272Z,12.53
2019-04-23T00:09:13.066Z,12.54
2019-04-23T00:10:12.313Z,12.53
2019-04-23T00:11:05.354Z,12.52
2019-04-23T00:12:09.964Z,12.56
2019-04-23T00:13:03.972Z,12.45
2019-04-23T00:14:05.761Z,12.42
2019-04-23T00:15:08.881Z,12.38
2019-04-23T00:16:15.434Z,12.41
2019-04-23T00:17:04.503Z,12.42
2019-04-23T00:18:02.815Z,12.42
2019-04-23T00:19:06.004Z,12.54
2019-04-23T00:20:09.705Z,12.49
2019-04-23T00:21:05.810Z,12.47
2019-04-23T00:22:07.302Z,12.45
2019-04-23T00:23:11.048Z,12.37
2019-04-23T00:24:13.813Z,12.41
2019-04-23T00:25:25.062Z,12.42
2019-04-23T00:26:18.021Z,12.37
2019-04-23T00:27:19.663Z,12.41
2019-04-23T00:29:18.961Z,12.37
2019-04-23T00:30:03.908Z,12.23
2019-04-23T00:31:15.496Z,12.31
2019-04-23T00:32:12.054Z,12.34
2019-04-23T00:33:05.367Z,12.34
2019-04-23T00:34:24.960Z,12.19
2019-04-23T00:35:05.948Z,12.23
2019-04-23T00:36:07.002Z,12.20
2019-04-23T00:37:13.173Z,12.19
2019-04-23T00:38:13.937Z,12.17
2019-04-23T00:39:01.374Z,12.16
2019-04-23T00:40:02.631Z,12.13
2019-04-23T00:41:02.857Z,12.16
2019-04-23T00:42:08.526Z,12.16
2019-04-23T00:43:08.587Z,12.19
2019-04-23T00:45:00.371Z,12.04
2019-04-23T00:46:04.269Z,12.05
2019-04-23T00:47:06.436Z,12.10
2019-04-23T00:48:12.723Z,12.14
2019-04-23T00:49:10.783Z,12.10
2019-04-23T00:50:30.252Z,12.10
2019-04-23T00:50:58.469Z,12.04
2019-04-23T00:52:09.571Z,12.04
2019-04-23T00:53:03.834Z,12.12
2019-04-23T00:54:06.004Z,11.98
2019-04-23T00:57:07.410Z,11.91
2019-04-23T00:59:08.386Z,11.95
2019-04-23T01:00:13.925Z,11.90
2019-04-23T01:01:03.594Z,11.98
2019-04-23T01:02:03.893Z,11.95
2019-04-23T01:03:06.081Z,11.95
2019-04-23T01:04:12.333Z,11.90
2019-04-23T01:05:11.431Z,11.90
2019-04-23T01:06:08.099Z,11.94
2019-04-23T01:07:07.565Z,11.90
2019-04-23T01:08:07.165Z,11.86
2019-04-23T01:09:03.726Z,11.85
2019-04-23T01:10:10.109Z,11.94
2019-04-23T01:12:07.446Z,11.94
2019-04-23T01:13:08.627Z,11.85
2019-04-23T01:15:04.721Z,11.79
2019-04-23T01:16:18.105Z,11.85
2019-04-23T01:17:08.608Z,11.80
2019-04-23T01:18:15.951Z,11.80
2019-04-23T01:18:59.575Z,11.78
2019-04-23T01:20:04.751Z,11.75
2019-04-23T01:20:53.454Z,11.78
2019-04-23T01:21:43.437Z,11.78
2019-04-23T01:22:44.313Z,11.75
2019-04-23T01:23:51.611Z,11.76
2019-04-23T01:24:44.652Z,11.73
2019-04-23T01:25:54.655Z,11.73
2019-04-23T01:27:23.853Z,11.67
2019-04-23T01:28:09.375Z,11.73
2019-04-23T01:29:08.268Z,11.79
2019-04-23T01:30:09.527Z,11.70
2019-04-23T01:31:23.266Z,11.67
2019-04-23T01:32:14.155Z,11.78
2019-04-23T01:33:11.070Z,11.65
2019-04-23T01:34:13.488Z,11.67
2019-04-23T01:35:17.881Z,11.65
2019-04-23T01:37:14.811Z,11.67
2019-04-23T01:38:07.749Z,11.69
2019-04-23T01:39:11.748Z,11.70
2019-04-23T01:40:15.290Z,11.65
2019-04-23T01:41:09.768Z,11.65
2019-04-23T01:42:16.580Z,11.61
2019-04-23T01:43:10.912Z,11.69
2019-04-23T01:44:03.965Z,11.62
2019-04-23T01:45:13.278Z,11.64
2019-04-23T01:46:09.866Z,11.62
2019-04-23T01:47:14.969Z,11.55
2019-04-23T01:48:10.663Z,11.61
2019-04-23T01:49:05.966Z,11.49
2019-04-23T01:50:13.969Z,11.51
2019-04-23T01:51:01.398Z,11.55
2019-04-23T01:52:12.611Z,11.52
2019-04-23T01:53:14.335Z,11.52
2019-04-23T01:54:09.555Z,11.46
2019-04-23T01:55:08.332Z,11.40
2019-04-23T01:56:04.913Z,11.40
2019-04-23T01:57:11.119Z,11.42
2019-04-23T01:59:13.522Z,11.39
2019-04-23T02:01:06.812Z,11.36
2019-04-23T02:02:14.346Z,11.35
2019-04-23T02:03:10.353Z,11.35
2019-04-23T02:04:14.712Z,11.36
2019-04-23T02:05:16.035Z,11.37
2019-04-23T02:06:11.045Z,11.32
2019-04-23T02:07:15.499Z,11.43
2019-04-23T02:08:11.003Z,11.44
2019-04-23T02:09:06.565Z,11.36
2019-04-23T02:10:17.019Z,11.44
2019-04-23T02:11:07.943Z,11.35
2019-04-23T02:12:11.538Z,11.33
2019-04-23T02:13:12.640Z,11.35
2019-04-23T02:14:08.308Z,11.32
2019-04-23T02:15:12.149Z,11.32
2019-04-23T02:16:04.336Z,11.29
2019-04-23T02:17:10.262Z,11.28
2019-04-23T02:18:13.742Z,11.28
2019-04-23T02:19:10.245Z,11.33
2019-04-23T02:21:07.842Z,11.22
2019-04-23T02:22:03.956Z,11.15
2019-04-23T02:25:16.202Z,11.14
2019-04-23T02:26:10.700Z,11.22
2019-04-23T02:27:13.522Z,11.22
2019-04-23T02:28:09.084Z,11.14
2019-04-23T02:30:28.945Z,11.22
2019-04-23T02:32:09.216Z,11.17
2019-04-23T02:35:29.993Z,11.11
2019-04-23T02:36:07.428Z,11.06
2019-04-23T02:39:31.202Z,11.17
2019-04-23T02:40:30.363Z,11.14
2019-04-23T02:44:19.889Z,11.14
2019-04-23T02:45:16.003Z,11.17
2019-04-23T02:46:09.213Z,11.09
2019-04-23T02:47:19.337Z,11.06
2019-04-23T02:48:22.391Z,11.14
2019-04-23T02:49:20.544Z,11.10
2019-04-23T02:50:32.939Z,11.17
2019-04-23T02:51:10.747Z,11.14
2019-04-23T02:52:16.228Z,11.18
2019-04-23T02:53:31.734Z,11.14
2019-04-23T02:54:26.607Z,11.14
2019-04-23T02:55:19.316Z,11.17
2019-04-23T02:57:29.793Z,11.22
2019-04-23T02:58:21.409Z,11.25
2019-04-23T02:59:21.380Z,11.24
2019-04-23T03:00:18.943Z,11.24
2019-04-23T03:02:30.259Z,11.22
2019-04-23T03:03:14.239Z,11.17
2019-04-23T03:04:16.804Z,11.10
2019-04-23T03:05:13.253Z,11.19
2019-04-23T03:09:14.363Z,11.24
2019-04-23T03:11:20.373Z,11.18
2019-04-23T03:12:14.733Z,11.14
2019-04-23T03:13:29.512Z,11.09
2019-04-23T03:15:21.758Z,11.15
2019-04-23T03:17:25.946Z,11.18
2019-04-23T03:18:35.036Z,11.10
2019-04-23T03:19:15.314Z,11.11
2019-04-23T03:20:21.382Z,11.14
2019-04-23T03:21:27.053Z,11.07
2019-04-23T03:22:25.662Z,11.15
2019-04-23T03:23:34.901Z,11.00
2019-04-23T03:25:21.323Z,11.00
2019-04-23T03:27:22.940Z,10.97
2019-04-23T03:28:23.135Z,11.04
2019-04-23T03:29:21.851Z,11.04
2019-04-23T03:30:16.424Z,11.03
2019-04-23T03:32:52.020Z,11.02
2019-04-23T03:35:10.686Z,11.04
2019-04-23T03:36:01.969Z,11.04
2019-04-23T03:38:21.526Z,11.00
2019-04-23T03:39:02.413Z,10.94
2019-04-23T03:40:12.188Z,10.96
2019-04-23T03:43:16.098Z,10.91
2019-04-23T03:44:14.056Z,10.97
2019-04-23T03:46:23.225Z,10.91
2019-04-23T03:47:18.713Z,10.99
2019-04-23T03:48:16.890Z,10.92
2019-04-23T03:49:05.574Z,10.88
2019-04-23T03:50:18.012Z,10.97
2019-04-23T03:51:11.829Z,10.91
2019-04-23T03:52:24.981Z,10.86
2019-04-23T03:53:14.077Z,10.92
2019-04-23T03:54:26.030Z,10.89
2019-04-23T03:56:44.812Z,10.84
2019-04-23T03:58:15.983Z,10.89
2019-04-23T03:59:19.988Z,10.88
2019-04-23T04:00:35.217Z,10.88
2019-04-23T04:01:13.992Z,10.91
2019-04-23T04:03:27.587Z,10.88
2019-04-23T04:05:10.704Z,10.84
2019-04-23T04:07:18.552Z,10.91
2019-04-23T04:08:18.071Z,10.89
2019-04-23T04:09:28.691Z,10.91
2019-04-23T04:10:05.048Z,10.92
2019-04-23T04:12:30.064Z,10.89
2019-04-23T04:13:20.051Z,10.89
2019-04-23T04:14:23.693Z,10.84
2019-04-23T04:15:47.116Z,10.86
2019-04-23T04:17:17.862Z,10.82
2019-04-23T04:19:31.591Z,10.76
2019-04-23T04:20:15.236Z,10.79
2019-04-23T04:21:16.139Z,10.82
2019-04-23T04:22:21.074Z,10.78
2019-04-23T04:23:22.510Z,10.76
2019-04-23T04:24:22.439Z,10.74
2019-04-23T04:25:14.482Z,10.82
2019-04-23T04:26:13.805Z,10.86
2019-04-23T04:28:28.593Z,10.74
2019-04-23T04:29:21.006Z,10.73
2019-04-23T04:30:12.420Z,10.82
2019-04-23T04:31:34.668Z,10.81
2019-04-23T04:32:03.576Z,10.73
2019-04-23T04:33:26.223Z,10.71
2019-04-23T04:38:28.846Z,10.67
2019-04-23T04:39:05.376Z,10.71
2019-04-23T04:40:23.385Z,10.73
2019-04-23T04:41:13.934Z,10.68
2019-04-23T04:42:10.478Z,10.66
2019-04-23T04:43:26.869Z,10.67
2019-04-23T04:44:27.266Z,10.67
2019-04-23T04:45:28.193Z,10.67
2019-04-23T04:46:21.232Z,10.67
2019-04-23T04:47:14.849Z,10.76
2019-04-23T04:48:09.920Z,10.76
2019-04-23T04:49:11.907Z,10.71
2019-04-23T04:50:06.547Z,10.76
2019-04-23T04:53:22.115Z,10.70
2019-04-23T04:55:15.601Z,10.74
2019-04-23T04:56:28.059Z,10.73
2019-04-23T04:58:13.098Z,10.78
2019-04-23T04:59:08.628Z,10.82
2019-04-23T05:00:21.514Z,10.74
2019-04-23T05:01:25.502Z,10.73
2019-04-23T05:03:19.377Z,10.79
2019-04-23T05:04:14.029Z,10.82
2019-04-23T05:07:11.025Z,10.96
2019-04-23T05:08:13.812Z,10.92
2019-04-23T05:12:20.800Z,10.89
2019-04-23T05:14:06.775Z,10.91
2019-04-23T05:16:14.013Z,11.03
2019-04-23T05:17:28.112Z,10.99
2019-04-23T05:22:06.563Z,11.00
2019-04-23T05:23:15.842Z,11.10
2019-04-23T05:25:05.711Z,11.10
2019-04-23T05:26:08.470Z,11.22
2019-04-23T05:27:04.716Z,11.21
2019-04-23T05:28:28.494Z,11.21
2019-04-23T05:29:04.861Z,11.25
2019-04-23T05:30:09.855Z,11.22
2019-04-23T05:31:05.731Z,11.28
2019-04-23T05:32:07.600Z,11.28
2019-04-23T05:33:11.843Z,11.32
2019-04-23T05:34:02.580Z,11.35
2019-04-23T05:35:06.720Z,11.32
2019-04-23T05:37:07.061Z,11.39
2019-04-23T05:40:20.125Z,11.46
2019-04-23T05:41:10.414Z,11.44
2019-04-23T05:42:05.712Z,11.52
2019-04-23T05:43:03.300Z,11.55
2019-04-23T05:44:10.442Z,11.54
2019-04-23T05:45:06.095Z,11.61
2019-04-23T05:46:10.146Z,11.57
2019-04-23T05:47:12.545Z,11.67
2019-04-23T05:49:06.905Z,11.65
2019-04-23T05:50:11.514Z,11.75
2019-04-23T05:51:16.352Z,11.80
2019-04-23T05:52:27.877Z,11.75
2019-04-23T05:53:05.915Z,11.83
2019-04-23T05:54:06.515Z,11.90
2019-04-23T05:55:07.608Z,11.98
2019-04-23T05:56:20.652Z,11.99
2019-04-23T05:57:01.764Z,12.04
2019-04-23T05:58:08.586Z,12.07
2019-04-23T05:59:07.182Z,12.10
2019-04-23T06:00:04.129Z,12.16
2019-04-23T06:01:26.385Z,12.21
2019-04-23T06:04:12.232Z,12.29
2019-04-23T06:05:03.561Z,12.34
2019-04-23T06:06:11.303Z,12.35
2019-04-23T06:07:15.101Z,12.42
2019-04-23T06:08:09.513Z,12.52
2019-04-23T06:09:10.547Z,12.49
2019-04-23T06:10:09.122Z,12.57
2019-04-23T06:11:11.911Z,12.62
2019-04-23T06:12:00.164Z,12.64
2019-04-23T06:13:08.040Z,12.60
2019-04-23T06:14:19.150Z,12.68
2019-04-23T06:15:05.725Z,12.71
2019-04-23T06:16:04.974Z,12.74
2019-04-23T06:18:08.060Z,12.74
2019-04-23T06:19:07.423Z,12.82
2019-04-23T06:19:57.097Z,12.92
2019-04-23T06:21:10.121Z,12.92
2019-04-23T06:22:19.989Z,13.07
2019-04-23T06:23:05.455Z,13.11
2019-04-23T06:24:14.277Z,13.12
2019-04-23T06:25:31.246Z,13.08
2019-04-23T06:26:19.211Z,13.15
2019-04-23T06:27:06.918Z,13.11
2019-04-23T06:28:09.513Z,13.25
2019-04-23T06:29:08.899Z,13.15
2019-04-23T06:30:00.872Z,13.22
2019-04-23T06:31:58.501Z,13.33
2019-04-23T06:33:11.192Z,13.26
2019-04-23T06:34:12.075Z,13.29
2019-04-23T06:35:13.881Z,13.45
2019-04-23T06:36:05.637Z,13.42
2019-04-23T06:37:03.519Z,13.54
2019-04-23T06:38:26.181Z,13.66
2019-04-23T06:40:05.348Z,13.75
2019-04-23T06:41:06.800Z,13.89
2019-04-23T06:42:00.341Z,13.95
2019-04-23T06:43:06.522Z,13.95
2019-04-23T06:44:59.701Z,14.14
2019-04-23T06:46:08.376Z,14.21
2019-04-23T06:47:03.218Z,14.20
2019-04-23T06:48:10.033Z,14.28
2019-04-23T06:49:00.730Z,14.42
2019-04-23T06:50:00.100Z,14.60
2019-04-23T06:51:04.243Z,14.94
2019-04-23T06:52:15.205Z,15.29
2019-04-23T06:52:59.490Z,15.65
2019-04-23T06:54:04.849Z,16.41
2019-04-23T06:55:01.683Z,16.97
2019-04-23T06:56:06.649Z,17.55
2019-04-23T06:57:16.350Z,17.78
2019-04-23T06:58:08.364Z,17.78
2019-04-23T06:59:06.368Z,17.70
2019-04-23T07:00:13.563Z,17.79
2019-04-23T07:02:06.403Z,17.66
2019-04-23T07:03:10.848Z,17.54
2019-04-23T07:04:05.595Z,17.77
2019-04-23T07:07:23.887Z,18.11
2019-04-23T07:08:04.323Z,17.89
2019-04-23T07:09:10.536Z,17.66
2019-04-23T07:09:59.382Z,17.87
2019-04-23T07:11:09.631Z,17.84
2019-04-23T07:12:02.423Z,17.44
2019-04-23T07:13:04.859Z,17.38
2019-04-23T07:15:13.300Z,17.30
2019-04-23T07:16:07.765Z,17.11
2019-04-23T07:17:03.942Z,16.83
2019-04-23T07:18:05.810Z,16.73
2019-04-23T07:20:01.239Z,16.38
2019-04-23T07:21:06.541Z,16.21
2019-04-23T07:22:09.670Z,16.25
2019-04-23T07:23:05.244Z,16.09
2019-04-23T07:25:09.630Z,16.01
2019-04-23T07:26:08.047Z,16.09
2019-04-23T07:27:01.351Z,16.12
2019-04-23T07:28:07.130Z,16.27
2019-04-23T07:29:00.009Z,16.05
2019-04-23T07:30:08.302Z,16.04
2019-04-23T07:31:07.381Z,16.07
2019-04-23T07:32:00.470Z,16.11
2019-04-23T07:33:08.735Z,15.96
2019-04-23T07:34:01.105Z,16.02
2019-04-23T07:38:28.711Z,16.01
2019-04-23T07:40:17.669Z,15.92
2019-04-23T07:41:12.017Z,15.92
2019-04-23T07:42:13.394Z,16.02
2019-04-23T07:43:06.466Z,16.20
2019-04-23T07:44:14.191Z,16.21
2019-04-23T07:45:01.920Z,16.41
2019-04-23T07:46:12.265Z,16.45
2019-04-23T07:48:13.724Z,16.45
2019-04-23T07:49:08.429Z,16.34
2019-04-23T07:50:19.097Z,16.35
2019-04-23T07:51:06.123Z,16.41
2019-04-23T07:52:12.859Z,16.63
2019-04-23T07:53:17.322Z,16.94
2019-04-23T07:55:06.780Z,17.36
2019-04-23T07:56:03.749Z,17.52
2019-04-23T07:57:08.912Z,17.82
2019-04-23T07:58:06.471Z,17.77
2019-04-23T07:59:05.749Z,17.89
2019-04-23T08:00:00.483Z,18.07
2019-04-23T08:01:14.208Z,18.26
2019-04-23T08:02:11.557Z,18.45
2019-04-23T08:03:10.908Z,18.47
2019-04-23T08:04:04.708Z,18.67
2019-04-23T08:05:11.260Z,18.88
2019-04-23T08:06:03.937Z,19.04
2019-04-23T08:07:10.959Z,19.29
2019-04-23T08:08:01.684Z,19.92
2019-04-23T08:09:02.330Z,20.18
2019-04-23T08:10:02.256Z,20.29
2019-04-23T08:11:25.912Z,20.61
2019-04-23T08:12:04.808Z,20.99
2019-04-23T08:13:14.433Z,21.46
2019-04-23T08:16:06.846Z,21.16
2019-04-23T08:16:58.208Z,20.52
2019-04-23T08:18:06.994Z,20.70
2019-04-23T08:18:57.715Z,20.64
2019-04-23T08:20:14.166Z,20.67
2019-04-23T08:21:04.924Z,20.91
2019-04-23T08:22:13.885Z,21.07
2019-04-23T08:23:06.775Z,20.69
2019-04-23T08:24:02.293Z,20.54
2019-04-23T08:25:06.729Z,20.33
2019-04-23T08:26:13.903Z,20.08
2019-04-23T08:27:04.515Z,19.98
2019-04-23T08:28:06.152Z,20.29
2019-04-23T08:29:12.866Z,19.99
2019-04-23T08:30:00.472Z,20.24
2019-04-23T08:30:59.018Z,20.35
2019-04-23T08:32:09.035Z,20.21
2019-04-23T08:33:09.082Z,20.23
2019-04-23T08:34:25.571Z,20.31
2019-04-23T08:35:01.237Z,20.18
2019-04-23T08:36:09.466Z,20.13
2019-04-23T08:37:04.972Z,20.14
2019-04-23T08:39:05.477Z,19.92
2019-04-23T08:40:02.594Z,19.78
2019-04-23T08:41:12.357Z,19.81
2019-04-23T08:42:21.628Z,19.96
2019-04-23T08:43:08.980Z,19.94
2019-04-23T08:44:11.304Z,20.18
2019-04-23T08:45:09.141Z,20.41
2019-04-23T08:46:08.159Z,20.50
2019-04-23T08:47:20.297Z,20.52
2019-04-23T08:48:09.258Z,20.54
2019-04-23T08:49:05.063Z,20.82
2019-04-23T08:50:02.260Z,20.94
2019-04-23T08:51:11.291Z,20.91
2019-04-23T08:53:17.953Z,20.62
2019-04-23T08:54:04.379Z,20.41
2019-04-23T08:55:07.595Z,20.35
2019-04-23T08:56:20.609Z,20.21
2019-04-23T08:57:58.059Z,20.72
2019-04-23T08:59:06.969Z,20.82
2019-04-23T09:00:17.914Z,20.80
2019-04-23T09:01:05.506Z,20.89
2019-04-23T09:03:04.601Z,20.88
2019-04-23T09:04:04.280Z,20.67
2019-04-23T09:05:23.528Z,20.47
2019-04-23T09:06:08.058Z,20.67
2019-04-23T09:07:11.419Z,20.82
2019-04-23T09:08:07.124Z,21.06
2019-04-23T09:09:06.947Z,21.19
2019-04-23T09:10:07.887Z,21.35
2019-04-23T09:11:19.434Z,21.43
2019-04-23T09:12:01.151Z,21.38
2019-04-23T09:13:32.121Z,21.52
2019-04-23T09:14:05.202Z,21.58
2019-04-23T09:15:11.406Z,21.25
2019-04-23T09:16:15.542Z,21.09
2019-04-23T09:17:04.889Z,20.98
2019-04-23T09:18:06.237Z,20.98
2019-04-23T09:19:11.233Z,20.80
2019-04-23T09:20:17.947Z,20.92
2019-04-23T09:21:03.486Z,20.64
2019-04-23T09:22:07.256Z,20.66
2019-04-23T09:22:54.742Z,20.72
2019-04-23T09:23:59.039Z,20.77
2019-04-23T09:25:02.729Z,20.87
2019-04-23T09:25:57.597Z,20.94
2019-04-23T09:27:05.592Z,20.84
2019-04-23T09:27:59.862Z,20.77
2019-04-23T09:31:08.967Z,21.03
2019-04-23T09:33:11.805Z,20.89
2019-04-23T09:35:05.961Z,20.80
2019-04-23T09:36:03.042Z,20.74
2019-04-23T09:37:04.714Z,20.58
2019-04-23T09:38:03.625Z,20.66
2019-04-23T09:39:06.332Z,20.66
2019-04-23T09:40:11.873Z,20.67
2019-04-23T09:41:20.122Z,20.92
2019-04-23T09:42:03.912Z,20.98
2019-04-23T09:44:03.091Z,20.97
2019-04-23T09:45:03.740Z,20.95
2019-04-23T09:46:04.726Z,21.03
2019-04-23T09:47:08.371Z,21.09
2019-04-23T09:48:03.580Z,21.32
2019-04-23T09:49:09.345Z,21.40
2019-04-23T09:50:01.752Z,21.19
2019-04-23T09:51:02.459Z,21.29
2019-04-23T09:52:11.166Z,21.24
2019-04-23T09:53:11.568Z,21.43
2019-04-23T09:54:08.296Z,21.58
2019-04-23T09:55:11.980Z,21.64
2019-04-23T09:55:51.446Z,21.72
2019-04-23T09:56:58.547Z,21.88
2019-04-23T09:58:03.062Z,22.28
2019-04-23T09:59:10.905Z,22.40
2019-04-23T10:00:25.601Z,22.62
2019-04-23T10:01:00.365Z,22.79
2019-04-23T10:01:59.499Z,22.79
2019-04-23T10:02:53.369Z,23.02
2019-04-23T10:03:47.569Z,23.38
2019-04-23T10:04:48.781Z,23.61
2019-04-23T10:05:46.394Z,23.75
2019-04-23T10:06:38.947Z,23.83
2019-04-23T10:07:44.255Z,23.85
2019-04-23T10:08:39.478Z,23.87
2019-04-23T10:09:36.235Z,23.84
2019-04-23T10:10:34.625Z,23.75
2019-04-23T10:11:34.726Z,24.21
2019-04-23T10:12:35.719Z,24.50
2019-04-23T10:13:34.613Z,24.77
2019-04-23T10:14:34.603Z,24.73
2019-04-23T10:15:38.846Z,24.49
2019-04-23T10:16:34.596Z,24.69
2019-04-23T10:17:35.989Z,24.58
2019-04-23T10:18:35.255Z,24.30
2019-04-23T10:19:35.078Z,24.53
2019-04-23T10:20:34.578Z,24.64
2019-04-23T10:21:35.319Z,24.78
2019-04-23T10:22:37.583Z,24.91
2019-04-23T10:23:34.564Z,24.99
2019-04-23T10:24:35.075Z,24.95
2019-04-23T10:25:35.976Z,25.38
2019-04-23T10:26:34.553Z,25.42
2019-04-23T10:27:35.081Z,25.57
2019-04-23T10:28:35.939Z,25.54
2019-04-23T10:29:36.245Z,25.36
2019-04-23T10:30:34.541Z,25.30
2019-04-23T10:31:35.714Z,25.05
2019-04-23T10:32:35.847Z,25.46
2019-04-23T10:33:34.533Z,25.75
2019-04-23T10:34:45.021Z,25.70
2019-04-23T10:35:44.816Z,25.61
2019-04-23T10:36:36.164Z,25.70
2019-04-23T10:37:46.081Z,25.65
2019-04-23T10:38:36.272Z,25.61
2019-04-23T10:39:37.785Z,25.83
2019-04-23T10:40:38.888Z,25.85
2019-04-23T10:41:35.802Z,25.72
2019-04-23T10:42:38.478Z,25.55
2019-04-23T10:43:39.188Z,25.76
2019-04-23T10:44:35.456Z,25.75
2019-04-23T10:45:48.428Z,26.02
2019-04-23T10:46:53.203Z,25.82
2019-04-23T10:48:17.318Z,25.98
2019-04-23T10:49:12.899Z,26.15
2019-04-23T10:50:05.700Z,26.17
2019-04-23T10:50:58.806Z,25.99
2019-04-23T10:52:07.047Z,26.05
2019-04-23T10:53:09.266Z,26.10
2019-04-23T10:54:59.108Z,26.18
2019-04-23T10:56:00.961Z,25.98
2019-04-23T10:56:59.019Z,26.10
2019-04-23T10:58:01.914Z,25.36
2019-04-23T10:59:06.582Z,24.61
2019-04-23T10:59:53.661Z,24.85
2019-04-23T11:01:23.338Z,25.18
2019-04-23T11:02:25.072Z,25.36
2019-04-23T11:03:14.040Z,25.61
2019-04-23T11:04:32.869Z,25.62
2019-04-23T11:07:09.544Z,26.02
2019-04-23T11:08:06.956Z,26.09
2019-04-23T11:09:06.198Z,26.12
2019-04-23T11:10:05.584Z,26.17
2019-04-23T11:11:09.397Z,26.01
2019-04-23T11:12:16.337Z,25.94
2019-04-23T11:13:00.788Z,25.92
2019-04-23T11:15:09.234Z,25.09
2019-04-23T11:17:30.362Z,25.45
2019-04-23T11:18:13.480Z,25.43
2019-04-23T11:19:10.764Z,25.03
2019-04-23T11:20:17.853Z,25.18
2019-04-23T11:21:09.304Z,25.50
2019-04-23T11:22:19.955Z,25.57
2019-04-23T11:23:11.540Z,25.73
2019-04-23T11:24:11.849Z,25.18
2019-04-23T11:25:18.746Z,25.28
2019-04-23T11:26:10.908Z,25.70
2019-04-23T11:27:05.414Z,26.01
2019-04-23T11:28:10.259Z,25.94
2019-04-23T11:29:09.563Z,26.02
2019-04-23T11:30:14.408Z,26.01
2019-04-23T11:31:09.390Z,25.99
2019-04-23T11:32:23.868Z,26.21
2019-04-23T11:33:10.098Z,26.09
2019-04-23T11:35:17.557Z,25.76
2019-04-23T11:37:06.019Z,25.91
2019-04-23T11:38:22.100Z,26.18
2019-04-23T11:39:00.632Z,26.30
2019-04-23T11:40:13.659Z,26.72
2019-04-23T11:41:00.890Z,26.67
2019-04-23T11:43:20.324Z,26.36
2019-04-23T11:44:02.319Z,26.25
2019-04-23T11:45:06.857Z,26.13
2019-04-23T11:46:32.570Z,25.98
2019-04-23T11:49:20.150Z,26.15
2019-04-23T11:50:12.345Z,26.09
2019-04-23T11:52:07.891Z,25.85
2019-04-23T11:53:10.386Z,26.20
2019-04-23T11:54:01.603Z,26.21
2019-04-23T11:55:14.029Z,26.54
2019-04-23T11:57:22.162Z,25.83
2019-04-23T11:58:14.784Z,25.47
2019-04-23T11:59:07.069Z,24.84
2019-04-23T12:00:05.929Z,24.20
2019-04-23T12:01:11.623Z,24.10
2019-04-23T12:02:01.300Z,24.28
2019-04-23T12:03:10.950Z,24.78
2019-04-23T12:04:14.095Z,24.80
2019-04-23T12:05:12.995Z,25.18
2019-04-23T12:06:07.819Z,25.54
2019-04-23T12:08:09.373Z,25.87
2019-04-23T12:08:58.996Z,26.15
2019-04-23T12:10:07.297Z,26.48
2019-04-23T12:11:58.541Z,26.72
2019-04-23T12:13:10.578Z,26.89
2019-04-23T12:14:09.582Z,26.48
2019-04-23T12:15:05.780Z,26.84
2019-04-23T12:16:06.658Z,26.09
2019-04-23T12:18:11.101Z,25.57
2019-04-23T12:19:23.291Z,25.57
2019-04-23T12:20:57.405Z,25.54
2019-04-23T12:22:15.181Z,25.55
2019-04-23T12:23:19.071Z,24.99
2019-04-23T12:24:15.691Z,24.62
2019-04-23T12:26:03.415Z,23.93
2019-04-23T12:27:25.326Z,23.15
2019-04-23T12:28:01.740Z,22.80
2019-04-23T12:29:27.409Z,22.72
2019-04-23T12:30:06.093Z,22.30
2019-04-23T12:30:59.328Z,22.15
2019-04-23T12:32:18.154Z,21.86
2019-04-23T12:34:09.615Z,22.06
2019-04-23T12:36:04.775Z,22.46
2019-04-23T12:37:12.659Z,22.98
2019-04-23T12:38:00.977Z,23.10
2019-04-23T12:39:08.756Z,22.95
2019-04-23T12:40:12.924Z,22.64
2019-04-23T12:41:27.113Z,22.51
2019-04-23T12:42:24.713Z,23.13
2019-04-23T12:43:07.797Z,23.60
2019-04-23T12:43:58.049Z,23.91
2019-04-23T12:45:57.743Z,24.12
2019-04-23T12:47:25.456Z,23.87
2019-04-23T12:48:28.194Z,23.22
2019-04-23T12:49:13.087Z,23.13
2019-04-23T12:50:34.800Z,22.95
2019-04-23T12:51:28.282Z,22.83
2019-04-23T12:52:05.121Z,23.05
2019-04-23T12:53:01.173Z,23.12
2019-04-23T12:54:16.151Z,22.62
2019-04-23T12:55:19.309Z,22.06
2019-04-23T12:56:02.488Z,21.74
2019-04-23T12:57:14.779Z,21.34
2019-04-23T12:58:01.201Z,21.21
2019-04-23T12:58:56.295Z,20.98
2019-04-23T13:00:05.206Z,20.92
2019-04-23T13:00:57.451Z,21.14
2019-04-23T13:02:08.155Z,21.42
2019-04-23T13:03:16.526Z,21.52
2019-04-23T13:04:00.151Z,21.62
2019-04-23T13:05:05.237Z,21.52
2019-04-23T13:05:57.511Z,21.68
2019-04-23T13:07:11.406Z,21.68
2019-04-23T13:08:05.704Z,21.62
2019-04-23T13:09:07.846Z,21.28
2019-04-23T13:11:07.170Z,20.66
2019-04-23T13:12:18.249Z,20.58
2019-04-23T13:13:09.282Z,20.39
2019-04-23T13:15:02.897Z,20.28
2019-04-23T13:16:05.913Z,20.14
2019-04-23T13:18:59.468Z,20.08
2019-04-23T13:20:00.705Z,20.06
2019-04-23T13:21:07.070Z,20.21
2019-04-23T13:23:16.532Z,20.06
2019-04-23T13:23:54.651Z,20.20
2019-04-23T13:25:01.976Z,20.33
2019-04-23T13:25:57.174Z,20.35
2019-04-23T13:27:04.349Z,20.39
2019-04-23T13:29:03.123Z,20.39
2019-04-23T13:31:58.981Z,20.18
2019-04-23T13:33:08.053Z,20.03
2019-04-23T13:33:59.971Z,20.02
2019-04-23T13:35:22.101Z,19.99
2019-04-23T13:37:08.320Z,19.99
2019-04-23T13:38:06.898Z,20.01
2019-04-23T13:39:02.365Z,19.99
2019-04-23T13:40:00.230Z,19.99
2019-04-23T13:42:05.169Z,19.94
2019-04-23T13:43:17.466Z,19.80
2019-04-23T13:43:52.736Z,19.76
2019-04-23T13:45:05.462Z,19.61
2019-04-23T13:46:03.637Z,19.55
2019-04-23T13:47:10.584Z,19.61
2019-04-23T13:49:02.159Z,19.58
2019-04-23T13:50:09.022Z,19.47
2019-04-23T13:52:05.844Z,19.37
2019-04-23T13:53:28.769Z,19.37
2019-04-23T13:53:59.040Z,19.32
2019-04-23T13:56:01.960Z,19.22
2019-04-23T13:59:09.620Z,18.88
2019-04-23T14:00:24.909Z,18.82
2019-04-23T14:02:04.098Z,18.81
2019-04-23T14:04:07.698Z,18.67
2019-04-23T14:05:01.355Z,18.65
2019-04-23T14:06:10.680Z,18.57
2019-04-23T14:07:10.755Z,18.48
2019-04-23T14:08:12.995Z,18.50
2019-04-23T14:08:59.864Z,18.57
2019-04-23T14:10:13.688Z,18.50
2019-04-23T14:11:03.602Z,18.62
2019-04-23T14:11:58.655Z,18.50
2019-04-23T14:13:24.070Z,18.58
2019-04-23T14:15:04.552Z,18.66
2019-04-23T14:16:04.237Z,18.67
2019-04-23T14:17:08.352Z,18.70
2019-04-23T14:19:47.591Z,18.63
2019-04-23T14:20:40.450Z,18.63
2019-04-23T14:24:30.862Z,18.73
2019-04-23T14:26:25.932Z,18.70
2019-04-23T14:27:44.638Z,18.73
2019-04-23T14:28:28.755Z,18.81
2019-04-23T14:29:26.389Z,18.78
2019-04-23T14:30:37.292Z,18.87
2019-04-23T14:31:19.020Z,18.94
2019-04-23T14:32:23.228Z,18.94
2019-04-23T14:33:26.517Z,18.84
2019-04-23T14:34:20.872Z,18.91
2019-04-23T14:36:22.897Z,18.95
2019-04-23T14:37:22.035Z,18.95
2019-04-23T14:38:23.525Z,18.88
2019-04-23T14:39:24.015Z,18.87
2019-04-23T14:40:27.784Z,18.81
2019-04-23T14:42:28.062Z,18.65
2019-04-23T14:45:29.837Z,18.50
2019-04-23T14:46:53.048Z,18.48
2019-04-23T14:47:24.249Z,18.44
2019-04-23T14:49:24.656Z,18.48
2019-04-23T14:51:44.193Z,18.33
2019-04-23T14:52:21.259Z,18.48
2019-04-23T14:53:22.753Z,18.44
2019-04-23T14:54:24.768Z,18.37
2019-04-23T14:57:24.772Z,18.37
2019-04-23T14:58:23.464Z,18.30
2019-04-23T14:59:10.595Z,18.29
2019-04-23T15:00:29.366Z,18.21
2019-04-23T15:01:30.298Z,18.18
2019-04-23T15:02:20.772Z,18.20
2019-04-23T15:03:27.340Z,18.14
2019-04-23T15:04:25.226Z,18.02
2019-04-23T15:05:17.374Z,17.95
2019-04-23T15:06:36.283Z,17.87
2019-04-23T15:07:22.338Z,17.82
2019-04-23T15:08:28.747Z,17.71
2019-04-23T15:09:28.108Z,17.68
2019-04-23T15:12:22.467Z,17.40
2019-04-23T15:13:22.734Z,17.34
2019-04-23T15:14:17.155Z,17.25
2019-04-23T15:15:21.184Z,17.12
2019-04-23T15:16:26.540Z,17.21
2019-04-23T15:17:20.025Z,17.25
2019-04-23T15:18:25.307Z,17.15
2019-04-23T15:19:35.135Z,17.14
2019-04-23T15:20:22.765Z,17.07
2019-04-23T15:21:46.726Z,17.04
2019-04-23T15:22:35.124Z,16.98
2019-04-23T15:23:38.539Z,17.08
2019-04-23T15:27:47.410Z,17.08
2019-04-23T15:28:10.858Z,16.96
2019-04-23T15:29:02.766Z,16.91
2019-04-23T15:30:09.169Z,17.03